createdAt,value
2018-04-02T00:00:04.535Z,1.27
2018-04-02T00:02:32.036Z,1.30
2018-04-02T00:04:59.575Z,1.40
2018-04-02T00:07:27.070Z,1.20
2018-04-02T00:09:54.558Z,1.20
2018-04-02T00:12:22.082Z,1.10
2018-04-02T00:14:49.581Z,1.20
2018-04-02T00:17:17.115Z,1.35
2018-04-02T00:19:44.622Z,1.60
2018-04-02T00:22:12.896Z,1.13
2018-04-02T00:24:40.409Z,1.23
2018-04-02T00:27:08.673Z,1.10
2018-04-02T00:29:36.965Z,1.47
2018-04-02T00:32:05.238Z,1.20
2018-04-02T00:34:32.731Z,1.98
2018-04-02T00:37:00.254Z,2.53
2018-04-02T00:39:27.766Z,2.00
2018-04-02T00:41:55.297Z,1.63
2018-04-02T00:44:23.554Z,1.40
2018-04-02T00:46:51.049Z,1.53
2018-04-02T00:49:18.579Z,1.77
2018-04-02T00:51:46.104Z,1.70
2018-04-02T00:54:13.600Z,1.70
2018-04-02T00:56:41.112Z,1.70
2018-04-02T00:59:08.616Z,1.70
2018-04-02T01:01:36.125Z,1.47
2018-04-02T01:04:03.628Z,1.43
2018-04-02T01:06:31.124Z,1.20
2018-04-02T01:08:58.638Z,1.13
2018-04-02T01:11:26.146Z,1.30
2018-04-02T01:13:53.676Z,1.40
2018-04-02T01:16:21.192Z,1.80
2018-04-02T01:18:49.454Z,1.63
2018-04-02T01:21:16.963Z,1.40
2018-04-02T01:23:44.470Z,1.30
2018-04-02T01:26:11.987Z,1.60
2018-04-02T01:28:39.483Z,1.50
2018-04-02T01:31:07.004Z,1.60
2018-04-02T01:33:34.503Z,1.60
2018-04-02T01:36:01.992Z,1.40
2018-04-02T01:38:29.501Z,1.40
2018-04-02T01:40:56.989Z,1.30
2018-04-02T01:43:24.484Z,1.70
2018-04-02T01:45:52.003Z,1.43
2018-04-02T01:48:19.499Z,1.33
2018-04-02T01:50:47.013Z,1.65
2018-04-02T01:53:14.509Z,1.87
2018-04-02T01:55:41.995Z,1.40
2018-04-02T01:58:09.510Z,1.60
2018-04-02T02:00:36.993Z,1.20
2018-04-02T02:03:04.511Z,1.40
2018-04-02T02:05:31.999Z,1.40
2018-04-02T02:07:59.481Z,1.73
2018-04-02T02:10:27.004Z,1.73
2018-04-02T02:12:55.260Z,1.33
2018-04-02T02:15:22.765Z,1.50
2018-04-02T02:17:51.026Z,1.57
2018-04-02T02:20:19.288Z,1.73
2018-04-02T02:22:46.804Z,1.97
2018-04-02T02:25:14.310Z,1.47
2018-04-02T02:27:41.817Z,1.50
2018-04-02T02:30:09.324Z,1.50
2018-04-02T02:32:36.814Z,1.63
2018-04-02T02:35:05.098Z,1.50
2018-04-02T02:37:32.684Z,1.60
2018-04-02T02:40:00.942Z,1.53
2018-04-02T02:42:28.448Z,1.67
2018-04-02T02:44:55.946Z,1.47
2018-04-02T02:47:23.494Z,1.60
2018-04-02T02:49:50.990Z,1.50
2018-04-02T02:52:19.249Z,1.33
2018-04-02T02:54:46.759Z,1.40
2018-04-02T02:57:14.297Z,1.43
2018-04-02T02:59:41.777Z,1.50
2018-04-02T03:02:09.264Z,1.40
2018-04-02T03:04:36.770Z,1.20
2018-04-02T03:07:04.248Z,1.20
2018-04-02T03:09:32.518Z,1.30
2018-04-02T03:12:00.026Z,1.45
2018-04-02T03:14:27.510Z,1.10
2018-04-02T03:16:55.006Z,1.10
2018-04-02T03:19:22.489Z,1.30
2018-04-02T03:21:49.996Z,0.90
2018-04-02T03:24:17.493Z,1.17
2018-04-02T03:26:44.978Z,0.80
2018-04-02T03:29:13.242Z,1.00
2018-04-02T03:31:40.756Z,1.00
2018-04-02T03:34:08.281Z,0.80
2018-04-02T03:36:37.469Z,0.90
2018-04-02T03:39:04.989Z,1.03
2018-04-02T03:41:32.473Z,0.80
2018-04-02T03:43:59.989Z,0.80
2018-04-02T03:46:27.503Z,1.10
2018-04-02T03:48:54.987Z,0.90
2018-04-02T03:51:22.508Z,0.97
2018-04-02T03:53:50.000Z,0.90
2018-04-02T03:56:17.497Z,1.57
2018-04-02T03:58:45.030Z,1.80
2018-04-02T04:01:12.499Z,1.50
2018-04-02T04:03:39.994Z,1.60
2018-04-02T04:06:07.482Z,1.40
2018-04-02T04:08:34.986Z,1.40
2018-04-02T04:11:02.477Z,1.30
2018-04-02T04:13:29.987Z,1.42
2018-04-02T04:15:57.497Z,1.40
2018-04-02T04:18:24.983Z,1.30
2018-04-02T04:20:52.491Z,1.60
2018-04-02T04:23:19.977Z,1.47
2018-04-02T04:25:47.489Z,1.50
2018-04-02T04:28:14.979Z,1.40
2018-04-02T04:30:42.477Z,1.50
2018-04-02T04:33:10.757Z,1.30
2018-04-02T04:35:38.998Z,1.33
2018-04-02T04:38:06.504Z,1.50
2018-04-02T04:40:33.996Z,1.30
2018-04-02T04:43:01.478Z,1.70
2018-04-02T04:45:28.976Z,1.40
2018-04-02T04:47:56.473Z,1.60
2018-04-02T04:50:23.984Z,1.52
2018-04-02T04:52:51.482Z,1.63
2018-04-02T04:55:18.975Z,1.50
2018-04-02T04:57:46.490Z,1.40
2018-04-02T05:00:14.742Z,1.60
2018-04-02T05:02:42.250Z,1.33
2018-04-02T05:05:09.728Z,1.10
2018-04-02T05:07:37.217Z,1.10
2018-04-02T05:10:04.738Z,1.67
2018-04-02T05:12:32.225Z,1.73
2018-04-02T05:14:59.714Z,1.30
2018-04-02T05:17:27.220Z,1.50
2018-04-02T05:19:55.480Z,1.37
2018-04-02T05:22:23.763Z,1.40
2018-04-02T05:24:52.040Z,1.20
2018-04-02T05:27:19.526Z,1.20
2018-04-02T05:29:47.025Z,1.30
2018-04-02T05:32:14.526Z,1.07
2018-04-02T05:34:42.048Z,1.08
2018-04-02T05:37:09.533Z,0.90
2018-04-02T05:39:37.013Z,1.00
2018-04-02T05:42:04.523Z,0.90
2018-04-02T05:44:32.019Z,1.00
2018-04-02T05:46:59.537Z,1.20
2018-04-02T05:49:27.017Z,1.23
2018-04-02T05:51:54.528Z,1.20
2018-04-02T05:54:22.035Z,1.17
2018-04-02T05:56:49.538Z,1.20
2018-04-02T05:59:17.050Z,1.00
2018-04-02T06:01:44.549Z,1.40
2018-04-02T06:04:12.076Z,1.10
2018-04-02T06:06:39.583Z,1.20
2018-04-02T06:09:07.088Z,1.00
2018-04-02T06:11:34.621Z,1.00
2018-04-02T06:14:02.120Z,1.30
2018-04-02T06:16:29.640Z,1.70
2018-04-02T06:18:57.129Z,2.67
2018-04-02T06:21:25.397Z,2.20
2018-04-02T06:23:52.898Z,2.10
2018-04-02T06:26:20.382Z,1.83
2018-04-02T06:28:47.891Z,2.10
2018-04-02T06:31:15.394Z,1.40
2018-04-02T06:33:42.882Z,1.80
2018-04-02T06:36:11.162Z,1.70
2018-04-02T06:38:38.642Z,1.73
2018-04-02T06:41:06.177Z,1.95
2018-04-02T06:43:33.667Z,1.50
2018-04-02T06:46:01.164Z,1.70
2018-04-02T06:48:29.452Z,1.43
2018-04-02T06:50:56.938Z,1.80
2018-04-02T06:53:24.495Z,1.43
2018-04-02T06:55:51.976Z,1.43
2018-04-02T06:58:19.460Z,1.40
2018-04-02T07:00:46.967Z,1.60
2018-04-02T07:03:14.462Z,1.70
2018-04-02T07:05:41.978Z,3.03
2018-04-02T07:08:09.483Z,1.60
2018-04-02T07:10:36.981Z,1.30
2018-04-02T07:13:04.544Z,1.90
2018-04-02T07:15:32.045Z,2.43
2018-04-02T07:18:00.322Z,3.07
2018-04-02T07:20:27.809Z,2.90
2018-04-02T07:22:55.327Z,2.63
2018-04-02T07:25:22.846Z,1.93
2018-04-02T07:27:50.351Z,1.90
2018-04-02T07:30:17.877Z,1.90
2018-04-02T07:32:45.371Z,1.93
2018-04-02T07:35:12.871Z,2.20
2018-04-02T07:37:40.383Z,2.30
2018-04-02T07:40:07.874Z,1.90
2018-04-02T07:42:35.393Z,1.73
2018-04-02T07:45:02.911Z,1.83
2018-04-02T07:47:31.196Z,1.90
2018-04-02T07:49:58.739Z,1.40
2018-04-02T07:52:26.240Z,2.07
2018-04-02T07:54:53.755Z,1.90
2018-04-02T07:57:21.309Z,1.80
2018-04-02T07:59:48.792Z,1.60
2018-04-02T08:02:16.329Z,1.70
2018-04-02T08:04:43.834Z,2.00
2018-04-02T08:07:12.106Z,3.10
2018-04-02T08:09:39.618Z,2.40
2018-04-02T08:12:07.165Z,1.70
2018-04-02T08:14:34.638Z,2.40
2018-04-02T08:17:02.140Z,2.20
2018-04-02T08:19:29.623Z,1.70
2018-04-02T08:21:57.144Z,1.60
2018-04-02T08:24:24.658Z,1.73
2018-04-02T08:26:52.185Z,2.17
2018-04-02T08:29:19.682Z,1.60
2018-04-02T08:31:47.182Z,1.70
2018-04-02T08:34:14.707Z,1.27
2018-04-02T08:36:42.207Z,1.27
2018-04-02T08:39:09.737Z,1.73
2018-04-02T08:41:38.009Z,1.53
2018-04-02T08:44:05.517Z,1.40
2018-04-02T08:46:33.017Z,1.60
2018-04-02T08:49:00.522Z,1.70
2018-04-02T08:51:28.023Z,1.67
2018-04-02T08:53:55.521Z,1.80
2018-04-02T08:56:23.044Z,1.53
2018-04-02T08:58:50.556Z,1.47
2018-04-02T09:01:18.059Z,1.70
2018-04-02T09:03:45.559Z,1.77
2018-04-02T09:06:13.070Z,1.50
2018-04-02T09:08:40.609Z,1.80
2018-04-02T09:11:09.025Z,1.43
2018-04-02T09:13:36.534Z,1.20
2018-04-02T09:16:04.039Z,1.40
2018-04-02T09:18:31.605Z,1.60
2018-04-02T09:20:59.098Z,1.40
2018-04-02T09:23:26.610Z,1.20
2018-04-02T09:25:54.873Z,1.20
2018-04-02T09:28:22.371Z,1.40
2018-04-02T09:30:49.881Z,1.20
2018-04-02T09:33:17.404Z,1.10
2018-04-02T09:35:44.908Z,1.20
2018-04-02T09:38:12.396Z,1.13
2018-04-02T09:40:39.917Z,1.03
2018-04-02T09:43:07.421Z,1.13
2018-04-02T09:45:34.892Z,1.30
2018-04-02T09:48:02.417Z,1.10
2018-04-02T09:50:29.908Z,1.10
2018-04-02T09:52:57.489Z,0.90
2018-04-02T09:55:25.743Z,0.93
2018-04-02T09:57:53.243Z,1.10
2018-04-02T10:00:26.472Z,1.10
2018-04-02T10:02:53.989Z,1.20
2018-04-02T10:05:21.524Z,1.20
2018-04-02T10:07:49.040Z,0.97
2018-04-02T10:10:17.190Z,1.30
2018-04-02T10:12:44.633Z,1.40
2018-04-02T10:15:12.137Z,1.47
2018-04-02T10:17:39.728Z,1.10
2018-04-02T10:20:07.296Z,1.00
2018-04-02T10:22:34.841Z,0.90
2018-04-02T10:25:02.347Z,1.10
2018-04-02T10:27:29.850Z,1.00
2018-04-02T10:29:57.483Z,1.17
2018-04-02T10:32:25.650Z,0.93
2018-04-02T10:34:53.183Z,1.13
2018-04-02T10:37:20.674Z,0.90
2018-04-02T10:39:48.156Z,1.10
2018-04-02T10:42:15.680Z,1.00
2018-04-02T10:44:43.174Z,0.77
2018-04-02T10:47:10.708Z,1.10
2018-04-02T10:49:38.971Z,0.70
2018-04-02T10:52:06.463Z,0.90
2018-04-02T10:54:33.986Z,1.00
2018-04-02T10:57:01.492Z,1.00
2018-04-02T10:59:29.005Z,1.00
2018-04-02T11:01:57.314Z,0.90
2018-04-02T11:04:24.881Z,1.10
2018-04-02T11:06:52.438Z,0.80
2018-04-02T11:09:19.936Z,0.90
2018-04-02T11:11:47.431Z,1.00
2018-04-02T11:14:15.719Z,0.80
2018-04-02T11:16:43.226Z,0.87
2018-04-02T11:19:10.748Z,0.83
2018-04-02T11:21:38.250Z,0.93
2018-04-02T11:24:05.763Z,0.80
2018-04-02T11:26:34.058Z,0.90
2018-04-02T11:29:01.573Z,1.00
2018-04-02T11:31:29.095Z,0.95
2018-04-02T11:33:56.607Z,0.90
2018-04-02T11:36:24.107Z,0.90
2018-04-02T11:38:51.628Z,1.13
2018-04-02T11:41:19.155Z,0.90
2018-04-02T11:43:46.681Z,1.00
2018-04-02T11:46:14.950Z,0.80
2018-04-02T11:48:42.467Z,0.80
2018-04-02T11:51:09.986Z,0.90
2018-04-02T11:53:37.498Z,0.73
2018-04-02T11:56:05.027Z,0.90
2018-04-02T11:58:32.537Z,1.13
2018-04-02T12:01:00.829Z,1.20
2018-04-02T12:03:28.407Z,1.10
2018-04-02T12:05:55.903Z,1.10
2018-04-02T12:08:23.450Z,1.10
2018-04-02T12:10:51.714Z,1.10
2018-04-02T12:13:19.200Z,1.20
2018-04-02T12:15:46.723Z,0.90
2018-04-02T12:18:14.237Z,0.90
2018-04-02T12:20:41.756Z,1.07
2018-04-02T12:23:09.265Z,0.97
2018-04-02T12:25:36.772Z,0.70
2018-04-02T12:28:04.307Z,0.87
2018-04-02T12:30:31.810Z,0.90
2018-04-02T12:32:59.339Z,1.00
2018-04-02T12:35:26.843Z,1.10
2018-04-02T12:37:54.343Z,0.90
2018-04-02T12:40:21.868Z,0.82
2018-04-02T12:42:49.403Z,0.90
2018-04-02T12:45:17.701Z,1.13
2018-04-02T12:47:45.209Z,1.10
2018-04-02T12:50:12.709Z,0.87
2018-04-02T12:52:40.250Z,0.83
2018-04-02T12:55:07.757Z,1.00
2018-04-02T12:57:35.893Z,0.80
2018-04-02T13:00:02.833Z,0.93
2018-04-02T13:02:30.392Z,0.93
2018-04-02T13:04:57.921Z,0.73
2018-04-02T13:07:25.528Z,0.90
2018-04-02T13:09:53.074Z,1.07
2018-04-02T13:12:21.345Z,1.00
2018-04-02T13:14:49.624Z,1.10
2018-04-02T13:17:17.160Z,0.88
2018-04-02T13:19:45.445Z,1.07
2018-04-02T13:22:12.970Z,0.97
2018-04-02T13:24:40.496Z,1.00
2018-04-02T13:27:08.764Z,0.70
2018-04-02T13:29:36.325Z,1.17
2018-04-02T13:32:03.826Z,1.00
2018-04-02T13:34:31.332Z,0.90
2018-04-02T13:36:58.859Z,1.10
2018-04-02T13:39:26.377Z,0.80
2018-04-02T13:41:54.309Z,1.07
2018-04-02T13:44:21.810Z,0.70
2018-04-02T13:46:49.302Z,0.70
2018-04-02T13:49:17.214Z,0.80
2018-04-02T13:51:44.734Z,0.70
2018-04-02T13:54:12.262Z,0.93
2018-04-02T13:56:39.767Z,1.00
2018-04-02T13:59:07.306Z,0.73
2018-04-02T14:01:35.597Z,0.67
2018-04-02T14:04:03.132Z,0.70
2018-04-02T14:06:30.662Z,0.70
2018-04-02T14:08:58.167Z,0.80
2018-04-02T14:11:25.733Z,0.70
2018-04-02T14:13:53.275Z,0.60
2018-04-02T14:16:21.571Z,0.73
2018-04-02T14:18:49.108Z,1.07
2018-04-02T14:21:16.617Z,0.80
2018-04-02T14:23:44.188Z,0.80
2018-04-02T14:26:12.451Z,0.50
2018-04-02T14:28:39.953Z,0.60
2018-04-02T14:31:07.463Z,0.90
2018-04-02T14:33:34.958Z,0.70
2018-04-02T14:36:02.550Z,1.03
2018-04-02T14:38:30.063Z,1.70
2018-04-02T14:40:57.549Z,1.20
2018-04-02T14:43:25.864Z,1.30
2018-04-02T14:45:53.377Z,0.60
2018-04-02T14:48:20.905Z,0.70
2018-04-02T14:50:48.403Z,0.70
2018-04-02T14:53:15.955Z,1.00
2018-04-02T14:55:43.465Z,1.20
2018-04-02T14:58:10.965Z,1.10
2018-04-02T15:00:38.512Z,0.70
2018-04-02T15:03:06.012Z,0.70
2018-04-02T15:05:33.544Z,0.60
2018-04-02T15:08:01.068Z,0.60
2018-04-02T15:10:28.570Z,0.60
2018-04-02T15:12:56.165Z,1.00
2018-04-02T15:15:23.686Z,0.80
2018-04-02T15:17:51.256Z,1.17
2018-04-02T15:20:18.781Z,0.70
2018-04-02T15:22:46.288Z,1.13
2018-04-02T15:25:13.828Z,1.43
2018-04-02T15:27:42.097Z,0.77
2018-04-02T15:30:10.366Z,1.50
2018-04-02T15:32:37.928Z,1.30
2018-04-02T15:35:06.217Z,1.43
2018-04-02T15:37:34.518Z,1.30
2018-04-02T15:40:02.035Z,1.20
2018-04-02T15:42:29.533Z,1.00
2018-04-02T15:44:57.079Z,0.80
2018-04-02T15:47:25.370Z,0.50
2018-04-02T15:49:52.894Z,1.30
2018-04-02T15:52:20.430Z,1.30
2018-04-02T15:54:47.979Z,1.10
2018-04-02T15:57:15.500Z,1.20
2018-04-02T15:59:43.005Z,1.00
2018-04-02T16:02:10.561Z,0.70
2018-04-02T16:04:38.070Z,0.80
2018-04-02T16:07:05.875Z,0.50
2018-04-02T16:09:33.390Z,0.80
2018-04-02T16:12:00.901Z,0.57
2018-04-02T16:14:28.464Z,0.80
2018-04-02T16:16:55.987Z,1.10
2018-04-02T16:19:23.518Z,0.60
2018-04-02T16:21:51.029Z,0.57
2018-04-02T16:24:18.603Z,0.47
2018-04-02T16:26:46.116Z,0.67
2018-04-02T16:29:13.714Z,1.00
2018-04-02T16:31:41.989Z,1.03
2018-04-02T16:34:09.488Z,1.93
2018-04-02T16:36:37.625Z,1.10
2018-04-02T16:39:05.867Z,0.80
2018-04-02T16:41:34.163Z,1.17
2018-04-02T16:44:01.678Z,0.87
2018-04-02T16:46:29.186Z,0.85
2018-04-02T16:48:56.749Z,0.80
2018-04-02T16:51:24.246Z,0.90
2018-04-02T16:53:51.796Z,0.60
2018-04-02T16:56:19.288Z,0.50
2018-04-02T16:58:46.839Z,1.20
2018-04-02T17:01:14.426Z,0.80
2018-04-02T17:03:42.020Z,0.87
2018-04-02T17:06:10.366Z,0.70
2018-04-02T17:08:37.817Z,1.00
2018-04-02T17:11:06.110Z,1.07
2018-04-02T17:13:33.619Z,0.57
2018-04-02T17:16:01.150Z,1.00
2018-04-02T17:18:30.320Z,0.73
2018-04-02T17:20:57.840Z,0.60
2018-04-02T17:23:25.361Z,0.80
2018-04-02T17:25:52.863Z,0.87
2018-04-02T17:28:21.314Z,0.80
2018-04-02T17:30:48.925Z,1.00
2018-04-02T17:33:16.499Z,0.53
2018-04-02T17:35:43.990Z,0.80
2018-04-02T17:38:11.492Z,0.70
2018-04-02T17:40:39.774Z,0.70
2018-04-02T17:43:08.053Z,0.73
2018-04-02T17:45:36.388Z,0.63
2018-04-02T17:48:03.886Z,0.90
2018-04-02T17:50:31.388Z,0.80
2018-04-02T17:52:58.903Z,0.60
2018-04-02T17:55:26.407Z,0.87
2018-04-02T17:57:54.004Z,1.07
2018-04-02T18:00:21.516Z,0.90
2018-04-02T18:02:49.043Z,0.90
2018-04-02T18:05:16.585Z,1.00
2018-04-02T18:07:44.188Z,1.00
2018-04-02T18:10:11.644Z,1.17
2018-04-02T18:12:39.152Z,0.90
2018-04-02T18:15:07.433Z,0.80
2018-04-02T18:17:34.961Z,0.97
2018-04-02T18:20:02.549Z,1.00
2018-04-02T18:22:30.089Z,1.42
2018-04-02T18:24:57.613Z,1.07
2018-04-02T18:27:25.136Z,1.17
2018-04-02T18:29:53.437Z,1.33
2018-04-02T18:32:20.967Z,1.00
2018-04-02T18:34:48.491Z,1.13
2018-04-02T18:37:16.023Z,1.00
2018-04-02T18:39:43.542Z,0.90
2018-04-02T18:42:11.093Z,0.93
2018-04-02T18:44:38.612Z,0.90
2018-04-02T18:47:06.117Z,1.10
2018-04-02T18:49:33.647Z,0.93
2018-04-02T18:52:01.173Z,1.10
2018-04-02T18:54:28.693Z,1.00
2018-04-02T18:57:33.924Z,1.47
2018-04-02T19:00:01.440Z,1.07
2018-04-02T19:02:29.716Z,1.10
2018-04-02T19:04:57.228Z,1.40
2018-04-02T19:07:24.796Z,1.23
2018-04-02T19:09:52.370Z,1.00
2018-04-02T19:12:20.763Z,1.50
2018-04-02T19:14:48.286Z,1.20
2018-04-02T19:17:15.832Z,1.30
2018-04-02T19:19:43.340Z,1.40
2018-04-02T19:22:10.880Z,1.47
2018-04-02T19:24:38.437Z,1.23
2018-04-02T19:27:05.958Z,1.10
2018-04-02T19:29:33.487Z,1.20
2018-04-02T19:32:00.990Z,1.40
2018-04-02T19:34:28.871Z,1.40
2018-04-02T19:36:57.162Z,1.20
2018-04-02T19:39:24.687Z,1.03
2018-04-02T19:41:52.211Z,1.40
2018-04-02T19:44:19.710Z,1.00
2018-04-02T19:46:47.221Z,1.27
2018-04-02T19:49:14.729Z,1.37
2018-04-02T19:51:42.250Z,1.07
2018-04-02T19:54:09.803Z,1.10
2018-04-02T19:56:38.072Z,1.23
2018-04-02T19:59:05.611Z,1.40
2018-04-02T20:01:33.123Z,1.70
2018-04-02T20:04:00.651Z,1.33
2018-04-02T20:06:28.182Z,1.17
2018-04-02T20:08:55.690Z,1.50
2018-04-02T20:11:23.985Z,1.77
2018-04-02T20:13:52.295Z,1.27
2018-04-02T20:16:19.838Z,1.50
2018-04-02T20:18:47.339Z,1.40
2018-04-02T20:21:14.879Z,1.40
2018-04-02T20:23:42.402Z,1.20
2018-04-02T20:26:09.934Z,1.40
2018-04-02T20:28:37.468Z,1.57
2018-04-02T20:31:04.985Z,1.60
2018-04-02T20:33:32.525Z,1.30
2018-04-02T20:36:00.100Z,1.90
2018-04-02T20:38:28.843Z,1.47
2018-04-02T20:40:56.396Z,1.40
2018-04-02T20:43:23.931Z,1.53
2018-04-02T20:45:51.462Z,1.47
2018-04-02T20:48:19.015Z,1.57
2018-04-02T20:50:46.511Z,1.60
2018-04-02T20:53:14.034Z,1.73
2018-04-02T20:55:41.579Z,1.47
2018-04-02T20:58:09.863Z,1.60
2018-04-02T21:00:37.862Z,1.50
2018-04-02T21:03:05.384Z,1.50
2018-04-02T21:05:33.706Z,1.70
2018-04-02T21:08:01.984Z,1.42
2018-04-02T21:10:29.493Z,1.60
2018-04-02T21:12:57.011Z,1.77
2018-04-02T21:15:24.533Z,1.70
2018-04-02T21:17:52.816Z,1.60
2018-04-02T21:20:20.360Z,1.43
2018-04-02T21:22:47.985Z,1.60
2018-04-02T21:25:15.482Z,1.57
2018-04-02T21:27:43.039Z,1.83
2018-04-02T21:30:10.565Z,1.57
2018-04-02T21:32:38.092Z,1.60
2018-04-02T21:35:06.395Z,1.60
2018-04-02T21:37:33.912Z,1.50
2018-04-02T21:40:01.451Z,1.63
2018-04-02T21:42:28.963Z,1.60
2018-04-02T21:44:56.487Z,1.43
2018-04-02T21:47:24.003Z,1.60
2018-04-02T21:49:51.527Z,1.50
2018-04-02T21:52:19.076Z,1.67
2018-04-02T21:54:46.657Z,1.60
2018-04-02T21:57:14.173Z,1.50
2018-04-02T21:59:41.716Z,1.50
2018-04-02T22:02:10.026Z,1.55
2018-04-02T22:04:37.571Z,1.80
2018-04-02T22:07:05.864Z,1.43
2018-04-02T22:09:33.386Z,1.73
2018-04-02T22:12:00.884Z,1.37
2018-04-02T22:14:28.389Z,1.63
2018-04-02T22:16:55.922Z,2.03
2018-04-02T22:19:23.428Z,1.50
2018-04-02T22:21:50.975Z,1.97
2018-04-02T22:24:18.488Z,1.73
2018-04-02T22:26:46.768Z,1.60
2018-04-02T22:29:15.075Z,1.80
2018-04-02T22:31:42.601Z,1.50
2018-04-02T22:34:10.102Z,1.63
2018-04-02T22:36:37.921Z,1.50
2018-04-02T22:39:06.271Z,1.90
2018-04-02T22:41:33.844Z,1.23
2018-04-02T22:44:01.365Z,1.57
2018-04-02T22:46:28.900Z,2.00
2018-04-02T22:48:56.430Z,1.70
2018-04-02T22:51:23.969Z,1.60
2018-04-02T22:53:51.485Z,1.80
2018-04-02T22:56:19.003Z,1.33
2018-04-02T22:58:46.562Z,1.70
2018-04-02T23:01:14.070Z,1.67
2018-04-02T23:03:41.662Z,1.40
2018-04-02T23:06:09.963Z,1.57
2018-04-02T23:08:38.218Z,1.70
2018-04-02T23:11:05.735Z,1.70
2018-04-02T23:13:33.248Z,1.35
2018-04-02T23:16:00.814Z,1.50
2018-04-02T23:18:29.097Z,1.40
2018-04-02T23:20:57.387Z,1.53
2018-04-02T23:23:25.693Z,1.60
2018-04-02T23:25:53.203Z,1.50
2018-04-02T23:28:20.707Z,1.50
2018-04-02T23:30:48.202Z,1.43
2018-04-02T23:33:15.709Z,1.43
2018-04-02T23:35:44.016Z,1.30
2018-04-02T23:38:11.521Z,1.30
2018-04-02T23:40:39.047Z,1.60
2018-04-02T23:43:06.553Z,1.33
2018-04-02T23:45:34.045Z,1.80
2018-04-02T23:48:02.336Z,1.43
2018-04-02T23:50:30.602Z,1.13
2018-04-02T23:52:58.147Z,1.87
2018-04-02T23:55:25.653Z,1.77
2018-04-02T23:57:53.165Z,1.50
